1938 NOT_NAMED (1938250N17127)


IBTrACS version v04r00. Visit IBTrACS website for data access.
Please direct all questions to the IBTrACS Q and A forum

Storm track - Intensity - Wind Radii - Intensity Data - Source Data - All data

Summary Information

Storm ID 1938250N17127
Start Sep 6 22Z
End Sep 9 22Z
ATCF IDs
Track status Best track data.

Storm track plot

Map of storm track

Intensity plots

No Intensity information for this storm


Radial wind information

No radial wind information for this storm


Position and Intensity Table

BASIN ISO_TIME_________ NATURE LAT LON
degrees north degrees east
WP 1938-09-06 22:00:00 NR 17.20 127.20
WP 1938-09-07 00:00:00 NR 17.31 127.39
WP 03:00:00 NR 17.47 127.66
WP 06:00:00 NR 17.62 127.92
WP 09:00:00 NR 17.76 128.14
WP 10:00:00 NR 17.80 128.20
WP 12:00:00 NR 17.88 128.31
WP 15:00:00 NR 17.99 128.46
WP 18:00:00 NR 18.11 128.59
WP 21:00:00 NR 18.25 128.74
WP 22:00:00 NR 18.30 128.80
WP 1938-09-08 00:00:00 NR 18.43 128.94
WP 03:00:00 NR 18.64 129.18
WP 06:00:00 NR 18.88 129.44
WP 09:00:00 NR 19.12 129.71
WP 10:00:00 NR 19.20 129.80
WP 12:00:00 NR 19.29 129.94
WP 15:00:00 NR 19.43 130.16
WP 18:00:00 NR 19.63 130.40
WP 21:00:00 NR 19.95 130.69
WP 22:00:00 NR 20.10 130.80
WP 1938-09-09 00:00:00 NR 20.50 131.06
WP 03:00:00 NR 21.24 131.52
WP 06:00:00 NR 22.07 132.02
WP 09:00:00 NR 22.92 132.53
WP 10:00:00 NR 23.20 132.70
WP 12:00:00 NR 23.72 133.03
WP 15:00:00 NR 24.45 133.51
WP 18:00:00 NR 25.13 133.98
WP 21:00:00 NR 25.79 134.45
WP 22:00:00 NR 26.00 134.60

Source Information

Agency Information
USA
TOKYO
CMA
HKO
NEWDELHI
REUNION
BOM
NADI
WELLINGTON
DS824
TD9636 cons_worldwide_trop_cyclone_18710101-19891231-003:Line=11056
TD9635
NEUMANN
MLC

All available IBTrACS Data

SEASON BASIN SUBBASIN ISO_TIME_________ NATURE LAT LON DIST2LAND LANDFALL IFLAG USA SSHS TD9636 LAT TD9636 LON TD9636 STAGE STORM SPEED STORM DIR
Year degrees north degrees east km km 1 degrees north degrees east kts degrees
1938 WP MM 1938-09-06 22:00:00 NR 17.20 127.20 474 474 __________O___ -1 17.20 127.20 7 6 59
1938 WP MM 1938-09-07 00:00:00 NR 17.31 127.39 496 496 __________P___ -1 17.31 127.39 7 6 59
1938 WP MM 03:00:00 NR 17.47 127.66 534 534 __________P___ -1 17.47 127.66 7 6 58
1938 WP MM 06:00:00 NR 17.62 127.92 557 557 __________P___ -1 17.62 127.92 7 5 57
1938 WP MM 09:00:00 NR 17.76 128.14 588 588 __________P___ -1 17.76 128.14 7 5 57
1938 WP MM 10:00:00 NR 17.80 128.20 595 595 __________O___ -1 17.80 128.20 7 4 54
1938 WP MM 12:00:00 NR 17.88 128.31 611 611 __________P___ -1 17.88 128.31 7 4 52
1938 WP MM 15:00:00 NR 17.99 128.46 634 634 __________P___ -1 17.99 128.46 7 4 49
1938 WP MM 18:00:00 NR 18.11 128.59 649 649 __________P___ -1 18.11 128.59 7 4 47
1938 WP MM 21:00:00 NR 18.25 128.74 664 680 __________P___ -1 18.25 128.74 7 4 46
1938 WP MM 22:00:00 NR 18.30 128.80 680 680 __________O___ -1 18.30 128.80 7 5 47
1938 WP MM 1938-09-08 00:00:00 NR 18.43 128.94 695 703 __________P___ -1 18.43 128.94 7 6 47
1938 WP MM 03:00:00 NR 18.64 129.18 727 728 __________P___ -1 18.64 129.18 7 7 46
1938 WP MM 06:00:00 NR 18.88 129.44 750 760 __________P___ -1 18.88 129.44 7 7 46
1938 WP MM 09:00:00 NR 19.12 129.71 783 783 __________P___ -1 19.12 129.71 7 7 46
1938 WP MM 10:00:00 NR 19.20 129.80 794 794 __________O___ -1 19.20 129.80 7 6 52
1938 WP MM 12:00:00 NR 19.29 129.94 806 816 __________P___ -1 19.29 129.94 7 5 56
1938 WP MM 15:00:00 NR 19.43 130.16 838 838 __________P___ -1 19.43 130.16 7 5 52
1938 WP MM 18:00:00 NR 19.63 130.40 862 862 __________P___ -1 19.63 130.40 7 7 44
1938 WP MM 21:00:00 NR 19.95 130.69 899 899 __________P___ -1 19.95 130.69 7 9 39
1938 WP MM 22:00:00 NR 20.10 130.80 912 912 __________O___ -1 20.10 130.80 7 13 33
1938 WP MM 1938-09-09 00:00:00 NR 20.50 131.06 951 951 __________P___ -1 20.50 131.06 7 16 31
1938 WP MM 03:00:00 NR 21.24 131.52 1011 1002 __________P___ -1 21.24 131.52 7 18 29
1938 WP MM 06:00:00 NR 22.07 132.02 1002 921 __________P___ -1 22.07 132.02 7 19 29
1938 WP MM 09:00:00 NR 22.92 132.53 921 893 __________P___ -1 22.92 132.53 7 19 29
1938 WP MM 10:00:00 NR 23.20 132.70 893 846 __________O___ -1 23.20 132.70 7 19 30
1938 WP MM 12:00:00 NR 23.72 133.03 846 776 __________P___ -1 23.72 133.03 7 18 31
1938 WP MM 15:00:00 NR 24.45 133.51 776 729 __________P___ -1 24.45 133.51 7 17 32
1938 WP MM 18:00:00 NR 25.13 133.98 733 683 __________P___ -1 25.13 133.98 7 16 32
1938 WP MM 21:00:00 NR 25.79 134.45 683 675 __________P___ -1 25.79 134.45 7 15 33
1938 WP MM 22:00:00 NR 26.00 134.60 675 __________O___ -1 26.00 134.60 7 15 32